sensor_id;sensor_type;location;lat;lon;timestamp;P1;durP1;ratioP1;P2;durP2;ratioP2
10458;SDS011;5277;48.722;8.736;2024-03-25T00:00:08;4.10;;;2.40;;
10458;SDS011;5277;48.722;8.736;2024-03-25T00:02:38;8.77;;;2.30;;
10458;SDS011;5277;48.722;8.736;2024-03-25T00:05:05;8.57;;;2.40;;
10458;SDS011;5277;48.722;8.736;2024-03-25T00:07:34;8.67;;;2.77;;
10458;SDS011;5277;48.722;8.736;2024-03-25T00:10:00;6.43;;;2.60;;
10458;SDS011;5277;48.722;8.736;2024-03-25T00:12:26;6.13;;;2.57;;
10458;SDS011;5277;48.722;8.736;2024-03-25T00:14:51;6.27;;;2.83;;
10458;SDS011;5277;48.722;8.736;2024-03-25T00:17:17;10.45;;;3.20;;
10458;SDS011;5277;48.722;8.736;2024-03-25T00:19:44;5.30;;;3.13;;
10458;SDS011;5277;48.722;8.736;2024-03-25T00:22:15;3.53;;;2.47;;
10458;SDS011;5277;48.722;8.736;2024-03-25T00:24:44;6.80;;;3.00;;
10458;SDS011;5277;48.722;8.736;2024-03-25T00:27:11;7.17;;;2.77;;
10458;SDS011;5277;48.722;8.736;2024-03-25T00:29:37;6.13;;;2.27;;
10458;SDS011;5277;48.722;8.736;2024-03-25T00:32:03;6.73;;;2.53;;
10458;SDS011;5277;48.722;8.736;2024-03-25T00:34:29;9.80;;;2.70;;
10458;SDS011;5277;48.722;8.736;2024-03-25T00:36:55;5.27;;;2.87;;
10458;SDS011;5277;48.722;8.736;2024-03-25T00:39:20;5.13;;;2.30;;
10458;SDS011;5277;48.722;8.736;2024-03-25T00:41:47;3.30;;;2.13;;
10458;SDS011;5277;48.722;8.736;2024-03-25T00:44:12;9.17;;;2.83;;
10458;SDS011;5277;48.722;8.736;2024-03-25T00:46:38;4.53;;;2.40;;
10458;SDS011;5277;48.722;8.736;2024-03-25T00:49:05;5.67;;;2.33;;
10458;SDS011;5277;48.722;8.736;2024-03-25T00:51:31;5.40;;;2.67;;
10458;SDS011;5277;48.722;8.736;2024-03-25T00:53:56;4.70;;;2.20;;
10458;SDS011;5277;48.722;8.736;2024-03-25T00:56:22;9.30;;;2.87;;
10458;SDS011;5277;48.722;8.736;2024-03-25T00:58:47;5.67;;;2.40;;
10458;SDS011;5277;48.722;8.736;2024-03-25T01:01:13;6.43;;;2.80;;
10458;SDS011;5277;48.722;8.736;2024-03-25T01:03:39;7.27;;;2.40;;
10458;SDS011;5277;48.722;8.736;2024-03-25T01:06:05;4.90;;;2.37;;
10458;SDS011;5277;48.722;8.736;2024-03-25T01:08:30;6.87;;;2.67;;
10458;SDS011;5277;48.722;8.736;2024-03-25T01:10:56;8.20;;;3.00;;
10458;SDS011;5277;48.722;8.736;2024-03-25T01:13:27;4.67;;;3.00;;
10458;SDS011;5277;48.722;8.736;2024-03-25T01:15:52;8.47;;;2.77;;
10458;SDS011;5277;48.722;8.736;2024-03-25T01:18:18;8.37;;;2.57;;
10458;SDS011;5277;48.722;8.736;2024-03-25T01:20:44;4.97;;;2.57;;
10458;SDS011;5277;48.722;8.736;2024-03-25T01:23:09;4.70;;;2.27;;
10458;SDS011;5277;48.722;8.736;2024-03-25T01:25:35;7.77;;;2.40;;
10458;SDS011;5277;48.722;8.736;2024-03-25T01:28:01;4.00;;;2.30;;
10458;SDS011;5277;48.722;8.736;2024-03-25T01:30:27;5.00;;;2.47;;
10458;SDS011;5277;48.722;8.736;2024-03-25T01:32:53;5.30;;;2.60;;
10458;SDS011;5277;48.722;8.736;2024-03-25T01:35:19;12.80;;;2.60;;
10458;SDS011;5277;48.722;8.736;2024-03-25T01:37:45;9.60;;;2.73;;
10458;SDS011;5277;48.722;8.736;2024-03-25T01:40:11;6.27;;;2.53;;
10458;SDS011;5277;48.722;8.736;2024-03-25T01:42:37;6.00;;;2.60;;
10458;SDS011;5277;48.722;8.736;2024-03-25T01:45:03;7.57;;;2.50;;
10458;SDS011;5277;48.722;8.736;2024-03-25T01:47:30;5.87;;;2.50;;
10458;SDS011;5277;48.722;8.736;2024-03-25T01:49:58;6.87;;;2.47;;
10458;SDS011;5277;48.722;8.736;2024-03-25T01:52:25;5.90;;;2.70;;
10458;SDS011;5277;48.722;8.736;2024-03-25T01:54:51;4.70;;;2.63;;
10458;SDS011;5277;48.722;8.736;2024-03-25T01:57:17;9.77;;;3.00;;
10458;SDS011;5277;48.722;8.736;2024-03-25T01:59:44;4.10;;;2.90;;
10458;SDS011;5277;48.722;8.736;2024-03-25T02:02:09;7.37;;;3.10;;
10458;SDS011;5277;48.722;8.736;2024-03-25T02:04:37;11.30;;;2.85;;
10458;SDS011;5277;48.722;8.736;2024-03-25T02:07:05;6.43;;;2.50;;
10458;SDS011;5277;48.722;8.736;2024-03-25T02:09:33;7.43;;;3.10;;
10458;SDS011;5277;48.722;8.736;2024-03-25T02:12:00;4.15;;;2.95;;
10458;SDS011;5277;48.722;8.736;2024-03-25T02:14:27;6.97;;;2.53;;
10458;SDS011;5277;48.722;8.736;2024-03-25T02:16:52;9.87;;;2.43;;
10458;SDS011;5277;48.722;8.736;2024-03-25T02:19:18;4.57;;;2.50;;
10458;SDS011;5277;48.722;8.736;2024-03-25T02:21:46;6.77;;;2.90;;
10458;SDS011;5277;48.722;8.736;2024-03-25T02:24:12;9.00;;;3.20;;
10458;SDS011;5277;48.722;8.736;2024-03-25T02:26:40;9.40;;;3.00;;
10458;SDS011;5277;48.722;8.736;2024-03-25T02:29:08;7.70;;;2.60;;
10458;SDS011;5277;48.722;8.736;2024-03-25T02:31:34;7.30;;;3.30;;
10458;SDS011;5277;48.722;8.736;2024-03-25T02:34:00;8.47;;;2.87;;
10458;SDS011;5277;48.722;8.736;2024-03-25T02:36:25;7.20;;;2.95;;
10458;SDS011;5277;48.722;8.736;2024-03-25T02:38:51;5.10;;;2.53;;
10458;SDS011;5277;48.722;8.736;2024-03-25T02:41:17;9.37;;;2.70;;
10458;SDS011;5277;48.722;8.736;2024-03-25T02:43:43;4.30;;;2.63;;
10458;SDS011;5277;48.722;8.736;2024-03-25T02:46:09;7.15;;;3.08;;
10458;SDS011;5277;48.722;8.736;2024-03-25T02:48:34;7.57;;;2.77;;
10458;SDS011;5277;48.722;8.736;2024-03-25T02:51:02;4.73;;;2.47;;
10458;SDS011;5277;48.722;8.736;2024-03-25T02:53:28;5.77;;;3.00;;
10458;SDS011;5277;48.722;8.736;2024-03-25T02:55:54;6.83;;;2.77;;
10458;SDS011;5277;48.722;8.736;2024-03-25T02:58:19;8.23;;;3.87;;
10458;SDS011;5277;48.722;8.736;2024-03-25T03:00:45;5.13;;;3.23;;
10458;SDS011;5277;48.722;8.736;2024-03-25T03:03:10;6.60;;;2.80;;
10458;SDS011;5277;48.722;8.736;2024-03-25T03:05:36;8.20;;;2.67;;
10458;SDS011;5277;48.722;8.736;2024-03-25T03:08:04;4.83;;;2.73;;
10458;SDS011;5277;48.722;8.736;2024-03-25T03:10:30;13.53;;;2.80;;
10458;SDS011;5277;48.722;8.736;2024-03-25T03:12:55;4.83;;;2.53;;
10458;SDS011;5277;48.722;8.736;2024-03-25T03:15:21;6.60;;;3.03;;
10458;SDS011;5277;48.722;8.736;2024-03-25T03:17:47;6.05;;;2.95;;
10458;SDS011;5277;48.722;8.736;2024-03-25T03:20:12;5.67;;;2.70;;
10458;SDS011;5277;48.722;8.736;2024-03-25T03:22:38;8.47;;;2.70;;
10458;SDS011;5277;48.722;8.736;2024-03-25T03:25:04;11.63;;;3.27;;
10458;SDS011;5277;48.722;8.736;2024-03-25T03:27:30;5.53;;;2.77;;
10458;SDS011;5277;48.722;8.736;2024-03-25T03:29:55;6.80;;;2.27;;
10458;SDS011;5277;48.722;8.736;2024-03-25T03:32:21;7.10;;;2.77;;
10458;SDS011;5277;48.722;8.736;2024-03-25T03:34:49;8.88;;;2.80;;
10458;SDS011;5277;48.722;8.736;2024-03-25T03:37:15;4.90;;;2.47;;
10458;SDS011;5277;48.722;8.736;2024-03-25T03:39:40;4.63;;;2.77;;
10458;SDS011;5277;48.722;8.736;2024-03-25T03:42:06;4.83;;;2.70;;
10458;SDS011;5277;48.722;8.736;2024-03-25T03:44:32;6.83;;;2.53;;
10458;SDS011;5277;48.722;8.736;2024-03-25T03:46:57;7.13;;;2.40;;
10458;SDS011;5277;48.722;8.736;2024-03-25T03:49:25;4.70;;;2.40;;
10458;SDS011;5277;48.722;8.736;2024-03-25T03:51:51;7.20;;;2.80;;
10458;SDS011;5277;48.722;8.736;2024-03-25T03:54:16;5.30;;;2.30;;
10458;SDS011;5277;48.722;8.736;2024-03-25T03:56:42;6.70;;;2.30;;
10458;SDS011;5277;48.722;8.736;2024-03-25T03:59:07;7.17;;;2.43;;
10458;SDS011;5277;48.722;8.736;2024-03-25T04:01:33;8.40;;;2.27;;
10458;SDS011;5277;48.722;8.736;2024-03-25T04:03:59;4.60;;;2.40;;
10458;SDS011;5277;48.722;8.736;2024-03-25T04:06:24;6.40;;;2.43;;
10458;SDS011;5277;48.722;8.736;2024-03-25T04:08:50;9.13;;;2.87;;
10458;SDS011;5277;48.722;8.736;2024-03-25T04:11:16;9.03;;;2.50;;
10458;SDS011;5277;48.722;8.736;2024-03-25T04:13:41;14.00;;;2.63;;
10458;SDS011;5277;48.722;8.736;2024-03-25T04:16:07;3.73;;;2.20;;
10458;SDS011;5277;48.722;8.736;2024-03-25T04:18:34;6.13;;;2.53;;
10458;SDS011;5277;48.722;8.736;2024-03-25T04:21:00;7.97;;;2.70;;
10458;SDS011;5277;48.722;8.736;2024-03-25T04:23:25;6.23;;;2.80;;
10458;SDS011;5277;48.722;8.736;2024-03-25T04:25:51;8.43;;;2.53;;
10458;SDS011;5277;48.722;8.736;2024-03-25T04:28:17;6.77;;;2.60;;
10458;SDS011;5277;48.722;8.736;2024-03-25T04:30:50;4.23;;;2.50;;
10458;SDS011;5277;48.722;8.736;2024-03-25T04:33:16;6.80;;;3.20;;
10458;SDS011;5277;48.722;8.736;2024-03-25T04:35:42;6.10;;;2.93;;
10458;SDS011;5277;48.722;8.736;2024-03-25T04:38:09;8.73;;;2.70;;
10458;SDS011;5277;48.722;8.736;2024-03-25T04:40:34;5.53;;;2.80;;
10458;SDS011;5277;48.722;8.736;2024-03-25T04:43:00;4.87;;;2.67;;
10458;SDS011;5277;48.722;8.736;2024-03-25T04:45:27;4.83;;;2.83;;
10458;SDS011;5277;48.722;8.736;2024-03-25T04:47:53;19.07;;;3.30;;
10458;SDS011;5277;48.722;8.736;2024-03-25T04:50:18;4.83;;;2.90;;
10458;SDS011;5277;48.722;8.736;2024-03-25T04:52:44;8.80;;;3.13;;
10458;SDS011;5277;48.722;8.736;2024-03-25T04:55:10;6.33;;;3.20;;
10458;SDS011;5277;48.722;8.736;2024-03-25T04:57:35;5.00;;;2.83;;
10458;SDS011;5277;48.722;8.736;2024-03-25T05:00:01;10.03;;;3.20;;
10458;SDS011;5277;48.722;8.736;2024-03-25T05:02:27;5.03;;;2.70;;
10458;SDS011;5277;48.722;8.736;2024-03-25T05:04:53;4.77;;;2.73;;
10458;SDS011;5277;48.722;8.736;2024-03-25T05:07:19;9.33;;;3.17;;
10458;SDS011;5277;48.722;8.736;2024-03-25T05:09:44;6.63;;;3.07;;
10458;SDS011;5277;48.722;8.736;2024-03-25T05:12:10;6.73;;;2.90;;
10458;SDS011;5277;48.722;8.736;2024-03-25T05:14:36;5.43;;;2.67;;
10458;SDS011;5277;48.722;8.736;2024-03-25T05:17:01;7.93;;;3.00;;
10458;SDS011;5277;48.722;8.736;2024-03-25T05:19:28;4.20;;;2.43;;
10458;SDS011;5277;48.722;8.736;2024-03-25T05:21:54;7.67;;;2.63;;
10458;SDS011;5277;48.722;8.736;2024-03-25T05:24:19;13.70;;;3.30;;
10458;SDS011;5277;48.722;8.736;2024-03-25T05:26:45;8.50;;;3.20;;
10458;SDS011;5277;48.722;8.736;2024-03-25T05:29:11;9.43;;;2.87;;
10458;SDS011;5277;48.722;8.736;2024-03-25T05:31:36;8.03;;;2.90;;
10458;SDS011;5277;48.722;8.736;2024-03-25T05:34:03;7.50;;;3.47;;
10458;SDS011;5277;48.722;8.736;2024-03-25T05:36:33;8.00;;;3.10;;
10458;SDS011;5277;48.722;8.736;2024-03-25T05:38:59;6.50;;;3.07;;
10458;SDS011;5277;48.722;8.736;2024-03-25T05:41:25;9.90;;;2.83;;
10458;SDS011;5277;48.722;8.736;2024-03-25T05:43:50;11.53;;;3.10;;
10458;SDS011;5277;48.722;8.736;2024-03-25T05:46:16;6.80;;;3.37;;
10458;SDS011;5277;48.722;8.736;2024-03-25T05:48:41;7.07;;;2.67;;
10458;SDS011;5277;48.722;8.736;2024-03-25T05:51:08;5.97;;;2.47;;
10458;SDS011;5277;48.722;8.736;2024-03-25T05:53:33;8.00;;;2.63;;
10458;SDS011;5277;48.722;8.736;2024-03-25T05:55:59;9.83;;;2.80;;
10458;SDS011;5277;48.722;8.736;2024-03-25T05:58:25;6.07;;;3.30;;
10458;SDS011;5277;48.722;8.736;2024-03-25T06:00:51;9.80;;;3.37;;
10458;SDS011;5277;48.722;8.736;2024-03-25T06:03:20;9.90;;;3.10;;
10458;SDS011;5277;48.722;8.736;2024-03-25T06:05:46;11.10;;;3.63;;
10458;SDS011;5277;48.722;8.736;2024-03-25T06:08:12;8.47;;;3.60;;
10458;SDS011;5277;48.722;8.736;2024-03-25T06:10:49;6.30;;;3.30;;
10458;SDS011;5277;48.722;8.736;2024-03-25T06:13:15;7.90;;;3.40;;
10458;SDS011;5277;48.722;8.736;2024-03-25T06:15:40;5.80;;;3.47;;
10458;SDS011;5277;48.722;8.736;2024-03-25T06:18:06;13.00;;;3.20;;
10458;SDS011;5277;48.722;8.736;2024-03-25T06:20:32;6.10;;;3.10;;
10458;SDS011;5277;48.722;8.736;2024-03-25T06:22:57;6.40;;;2.90;;
10458;SDS011;5277;48.722;8.736;2024-03-25T06:25:23;6.00;;;2.90;;
10458;SDS011;5277;48.722;8.736;2024-03-25T06:27:48;7.50;;;2.73;;
10458;SDS011;5277;48.722;8.736;2024-03-25T06:30:14;6.10;;;3.17;;
10458;SDS011;5277;48.722;8.736;2024-03-25T06:32:58;5.50;;;3.00;;
10458;SDS011;5277;48.722;8.736;2024-03-25T06:35:43;4.47;;;3.10;;
10458;SDS011;5277;48.722;8.736;2024-03-25T06:38:09;6.57;;;2.92;;
10458;SDS011;5277;48.722;8.736;2024-03-25T06:40:35;6.70;;;2.87;;
10458;SDS011;5277;48.722;8.736;2024-03-25T06:43:01;6.50;;;2.90;;
10458;SDS011;5277;48.722;8.736;2024-03-25T06:45:27;5.53;;;2.60;;
10458;SDS011;5277;48.722;8.736;2024-03-25T06:47:52;6.33;;;2.60;;
10458;SDS011;5277;48.722;8.736;2024-03-25T06:50:18;7.20;;;2.97;;
10458;SDS011;5277;48.722;8.736;2024-03-25T06:52:44;7.80;;;2.72;;
10458;SDS011;5277;48.722;8.736;2024-03-25T06:55:09;7.70;;;2.80;;
10458;SDS011;5277;48.722;8.736;2024-03-25T06:57:35;4.38;;;3.00;;
10458;SDS011;5277;48.722;8.736;2024-03-25T07:00:00;4.25;;;2.53;;
10458;SDS011;5277;48.722;8.736;2024-03-25T07:02:26;5.28;;;2.40;;
10458;SDS011;5277;48.722;8.736;2024-03-25T07:04:51;4.82;;;2.45;;
10458;SDS011;5277;48.722;8.736;2024-03-25T07:07:17;5.40;;;2.75;;
10458;SDS011;5277;48.722;8.736;2024-03-25T07:09:42;4.70;;;2.40;;
10458;SDS011;5277;48.722;8.736;2024-03-25T07:12:08;3.85;;;2.45;;
10458;SDS011;5277;48.722;8.736;2024-03-25T07:14:34;7.22;;;2.60;;
10458;SDS011;5277;48.722;8.736;2024-03-25T07:16:59;4.70;;;2.60;;
10458;SDS011;5277;48.722;8.736;2024-03-25T07:19:25;7.03;;;2.42;;
10458;SDS011;5277;48.722;8.736;2024-03-25T07:21:51;6.38;;;2.75;;
10458;SDS011;5277;48.722;8.736;2024-03-25T07:24:16;6.10;;;2.40;;
10458;SDS011;5277;48.722;8.736;2024-03-25T07:26:44;2.92;;;2.35;;
10458;SDS011;5277;48.722;8.736;2024-03-25T07:29:09;4.63;;;2.45;;
10458;SDS011;5277;48.722;8.736;2024-03-25T07:31:35;6.47;;;2.20;;
10458;SDS011;5277;48.722;8.736;2024-03-25T07:34:01;8.00;;;3.90;;
10458;SDS011;5277;48.722;8.736;2024-03-25T07:36:26;3.75;;;2.30;;
10458;SDS011;5277;48.722;8.736;2024-03-25T07:38:53;6.95;;;2.47;;
10458;SDS011;5277;48.722;8.736;2024-03-25T07:41:19;6.10;;;2.50;;
10458;SDS011;5277;48.722;8.736;2024-03-25T07:43:44;4.65;;;2.55;;
10458;SDS011;5277;48.722;8.736;2024-03-25T07:46:10;7.50;;;2.17;;
10458;SDS011;5277;48.722;8.736;2024-03-25T07:48:35;7.13;;;2.20;;
10458;SDS011;5277;48.722;8.736;2024-03-25T07:51:01;4.40;;;2.22;;
10458;SDS011;5277;48.722;8.736;2024-03-25T07:53:27;5.90;;;2.20;;
10458;SDS011;5277;48.722;8.736;2024-03-25T07:55:53;3.38;;;2.10;;
10458;SDS011;5277;48.722;8.736;2024-03-25T07:58:19;6.40;;;2.35;;
10458;SDS011;5277;48.722;8.736;2024-03-25T08:00:44;5.20;;;2.40;;
10458;SDS011;5277;48.722;8.736;2024-03-25T08:03:10;3.78;;;2.17;;
10458;SDS011;5277;48.722;8.736;2024-03-25T08:05:35;3.80;;;2.08;;
10458;SDS011;5277;48.722;8.736;2024-03-25T08:08:01;8.48;;;2.10;;
10458;SDS011;5277;48.722;8.736;2024-03-25T08:10:26;3.97;;;2.00;;
10458;SDS011;5277;48.722;8.736;2024-03-25T08:12:53;4.72;;;2.33;;
10458;SDS011;5277;48.722;8.736;2024-03-25T08:15:19;3.20;;;2.08;;
10458;SDS011;5277;48.722;8.736;2024-03-25T08:17:44;3.58;;;1.90;;
10458;SDS011;5277;48.722;8.736;2024-03-25T08:20:10;4.07;;;2.00;;
10458;SDS011;5277;48.722;8.736;2024-03-25T08:22:36;3.17;;;1.98;;
10458;SDS011;5277;48.722;8.736;2024-03-25T08:25:01;4.38;;;2.10;;
10458;SDS011;5277;48.722;8.736;2024-03-25T08:27:27;5.90;;;2.20;;
10458;SDS011;5277;48.722;8.736;2024-03-25T08:29:53;6.85;;;1.60;;
10458;SDS011;5277;48.722;8.736;2024-03-25T08:32:19;5.50;;;2.10;;
10458;SDS011;5277;48.722;8.736;2024-03-25T08:34:45;3.17;;;1.90;;
10458;SDS011;5277;48.722;8.736;2024-03-25T08:37:10;4.97;;;2.05;;
10458;SDS011;5277;48.722;8.736;2024-03-25T08:39:36;5.53;;;1.88;;
10458;SDS011;5277;48.722;8.736;2024-03-25T08:42:02;4.25;;;1.77;;
10458;SDS011;5277;48.722;8.736;2024-03-25T08:44:28;3.50;;;1.92;;
10458;SDS011;5277;48.722;8.736;2024-03-25T08:46:53;5.40;;;1.95;;
10458;SDS011;5277;48.722;8.736;2024-03-25T08:49:19;3.05;;;1.63;;
10458;SDS011;5277;48.722;8.736;2024-03-25T08:51:45;4.10;;;1.88;;
10458;SDS011;5277;48.722;8.736;2024-03-25T08:54:10;3.00;;;1.45;;
10458;SDS011;5277;48.722;8.736;2024-03-25T08:56:36;2.67;;;1.55;;
10458;SDS011;5277;48.722;8.736;2024-03-25T08:59:02;3.92;;;1.50;;
10458;SDS011;5277;48.722;8.736;2024-03-25T09:01:28;3.63;;;1.73;;
10458;SDS011;5277;48.722;8.736;2024-03-25T09:03:53;3.45;;;1.48;;
10458;SDS011;5277;48.722;8.736;2024-03-25T09:06:19;5.03;;;1.33;;
10458;SDS011;5277;48.722;8.736;2024-03-25T09:08:45;3.85;;;1.48;;
10458;SDS011;5277;48.722;8.736;2024-03-25T09:11:29;3.67;;;1.30;;
10458;SDS011;5277;48.722;8.736;2024-03-25T09:13:54;3.28;;;1.70;;
10458;SDS011;5277;48.722;8.736;2024-03-25T09:16:20;2.72;;;1.48;;
10458;SDS011;5277;48.722;8.736;2024-03-25T09:18:45;2.95;;;1.27;;
10458;SDS011;5277;48.722;8.736;2024-03-25T09:21:11;3.40;;;1.23;;
10458;SDS011;5277;48.722;8.736;2024-03-25T09:23:37;2.67;;;1.42;;
10458;SDS011;5277;48.722;8.736;2024-03-25T09:26:03;1.80;;;1.40;;
10458;SDS011;5277;48.722;8.736;2024-03-25T09:28:29;1.85;;;1.23;;
10458;SDS011;5277;48.722;8.736;2024-03-25T09:30:54;2.83;;;1.60;;
10458;SDS011;5277;48.722;8.736;2024-03-25T09:33:20;3.72;;;1.30;;
10458;SDS011;5277;48.722;8.736;2024-03-25T09:35:47;3.55;;;1.63;;
10458;SDS011;5277;48.722;8.736;2024-03-25T09:38:12;2.30;;;1.27;;
10458;SDS011;5277;48.722;8.736;2024-03-25T09:40:41;3.25;;;1.60;;
10458;SDS011;5277;48.722;8.736;2024-03-25T09:43:11;3.88;;;1.40;;
10458;SDS011;5277;48.722;8.736;2024-03-25T09:45:42;2.55;;;1.23;;
10458;SDS011;5277;48.722;8.736;2024-03-25T09:48:13;2.63;;;1.27;;
10458;SDS011;5277;48.722;8.736;2024-03-25T09:50:46;1.83;;;1.20;;
10458;SDS011;5277;48.722;8.736;2024-03-25T09:53:14;2.38;;;1.00;;
10458;SDS011;5277;48.722;8.736;2024-03-25T09:55:39;2.50;;;1.50;;
10458;SDS011;5277;48.722;8.736;2024-03-25T09:58:05;4.78;;;1.77;;
10458;SDS011;5277;48.722;8.736;2024-03-25T10:00:31;3.47;;;1.75;;
10458;SDS011;5277;48.722;8.736;2024-03-25T10:02:57;3.58;;;1.60;;
10458;SDS011;5277;48.722;8.736;2024-03-25T10:05:22;4.18;;;1.67;;
10458;SDS011;5277;48.722;8.736;2024-03-25T10:07:48;3.33;;;1.77;;
10458;SDS011;5277;48.722;8.736;2024-03-25T10:10:18;2.95;;;1.52;;
10458;SDS011;5277;48.722;8.736;2024-03-25T10:12:47;4.40;;;1.70;;
10458;SDS011;5277;48.722;8.736;2024-03-25T10:15:16;4.28;;;1.75;;
10458;SDS011;5277;48.722;8.736;2024-03-25T10:17:42;3.03;;;1.58;;
10458;SDS011;5277;48.722;8.736;2024-03-25T10:20:13;3.67;;;1.70;;
10458;SDS011;5277;48.722;8.736;2024-03-25T10:22:42;2.65;;;1.30;;
10458;SDS011;5277;48.722;8.736;2024-03-25T10:25:28;2.47;;;1.40;;
10458;SDS011;5277;48.722;8.736;2024-03-25T10:27:59;2.05;;;1.23;;
10458;SDS011;5277;48.722;8.736;2024-03-25T10:30:26;4.28;;;1.60;;
10458;SDS011;5277;48.722;8.736;2024-03-25T10:33:02;5.20;;;1.40;;
10458;SDS011;5277;48.722;8.736;2024-03-25T10:35:29;3.20;;;1.70;;
10458;SDS011;5277;48.722;8.736;2024-03-25T10:37:58;4.25;;;2.15;;
10458;SDS011;5277;48.722;8.736;2024-03-25T10:40:30;4.43;;;1.50;;
10458;SDS011;5277;48.722;8.736;2024-03-25T10:45:46;5.13;;;1.67;;
10458;SDS011;5277;48.722;8.736;2024-03-25T10:48:17;2.28;;;1.35;;
10458;SDS011;5277;48.722;8.736;2024-03-25T10:50:46;4.28;;;1.40;;
10458;SDS011;5277;48.722;8.736;2024-03-25T10:53:14;4.40;;;1.42;;
10458;SDS011;5277;48.722;8.736;2024-03-25T10:55:42;2.97;;;1.40;;
10458;SDS011;5277;48.722;8.736;2024-03-25T10:58:13;4.47;;;1.42;;
10458;SDS011;5277;48.722;8.736;2024-03-25T11:00:40;4.15;;;1.45;;
10458;SDS011;5277;48.722;8.736;2024-03-25T11:03:07;2.85;;;1.40;;
10458;SDS011;5277;48.722;8.736;2024-03-25T11:05:33;2.40;;;1.23;;
10458;SDS011;5277;48.722;8.736;2024-03-25T11:08:09;2.17;;;1.25;;
10458;SDS011;5277;48.722;8.736;2024-03-25T11:10:39;2.25;;;1.17;;
10458;SDS011;5277;48.722;8.736;2024-03-25T11:13:17;2.83;;;1.10;;
10458;SDS011;5277;48.722;8.736;2024-03-25T11:15:47;3.45;;;1.58;;
10458;SDS011;5277;48.722;8.736;2024-03-25T11:18:14;2.08;;;1.00;;
10458;SDS011;5277;48.722;8.736;2024-03-25T11:20:41;3.03;;;1.40;;
10458;SDS011;5277;48.722;8.736;2024-03-25T11:23:11;2.80;;;1.40;;
10458;SDS011;5277;48.722;8.736;2024-03-25T11:25:42;2.40;;;1.20;;
10458;SDS011;5277;48.722;8.736;2024-03-25T11:28:11;2.28;;;1.33;;
10458;SDS011;5277;48.722;8.736;2024-03-25T11:30:37;3.08;;;1.50;;
10458;SDS011;5277;48.722;8.736;2024-03-25T11:33:06;3.00;;;1.48;;
10458;SDS011;5277;48.722;8.736;2024-03-25T11:35:38;3.25;;;1.55;;
10458;SDS011;5277;48.722;8.736;2024-03-25T11:38:03;2.05;;;1.30;;
10458;SDS011;5277;48.722;8.736;2024-03-25T11:40:29;3.85;;;1.40;;
10458;SDS011;5277;48.722;8.736;2024-03-25T11:42:55;3.88;;;1.83;;
10458;SDS011;5277;48.722;8.736;2024-03-25T11:45:21;2.80;;;1.42;;
10458;SDS011;5277;48.722;8.736;2024-03-25T11:47:47;4.10;;;1.50;;
10458;SDS011;5277;48.722;8.736;2024-03-25T11:50:17;3.53;;;1.27;;
10458;SDS011;5277;48.722;8.736;2024-03-25T11:52:47;2.30;;;1.33;;
10458;SDS011;5277;48.722;8.736;2024-03-25T11:55:17;3.75;;;1.60;;
10458;SDS011;5277;48.722;8.736;2024-03-25T11:57:43;2.45;;;1.50;;
10458;SDS011;5277;48.722;8.736;2024-03-25T12:00:09;3.75;;;1.40;;
10458;SDS011;5277;48.722;8.736;2024-03-25T12:02:44;2.47;;;1.55;;
10458;SDS011;5277;48.722;8.736;2024-03-25T12:05:11;2.30;;;1.40;;
10458;SDS011;5277;48.722;8.736;2024-03-25T12:07:36;3.55;;;1.52;;
10458;SDS011;5277;48.722;8.736;2024-03-25T12:10:02;3.90;;;1.50;;
10458;SDS011;5277;48.722;8.736;2024-03-25T12:12:47;3.05;;;1.35;;
10458;SDS011;5277;48.722;8.736;2024-03-25T12:15:13;3.97;;;1.50;;
10458;SDS011;5277;48.722;8.736;2024-03-25T12:17:39;4.15;;;1.65;;
10458;SDS011;5277;48.722;8.736;2024-03-25T12:22:33;2.95;;;1.50;;
10458;SDS011;5277;48.722;8.736;2024-03-25T12:25:00;2.33;;;1.40;;
10458;SDS011;5277;48.722;8.736;2024-03-25T12:27:27;3.00;;;1.48;;
10458;SDS011;5277;48.722;8.736;2024-03-25T12:30:04;1.65;;;1.10;;
10458;SDS011;5277;48.722;8.736;2024-03-25T12:32:43;2.40;;;1.25;;
10458;SDS011;5277;48.722;8.736;2024-03-25T12:35:27;1.98;;;1.38;;
10458;SDS011;5277;48.722;8.736;2024-03-25T12:37:59;1.55;;;1.25;;
10458;SDS011;5277;48.722;8.736;2024-03-25T12:40:26;1.88;;;1.55;;
10458;SDS011;5277;48.722;8.736;2024-03-25T12:42:53;3.70;;;1.75;;
10458;SDS011;5277;48.722;8.736;2024-03-25T12:45:20;2.42;;;1.17;;
10458;SDS011;5277;48.722;8.736;2024-03-25T12:47:46;2.22;;;1.33;;
10458;SDS011;5277;48.722;8.736;2024-03-25T12:50:14;4.32;;;1.80;;
10458;SDS011;5277;48.722;8.736;2024-03-25T12:52:39;2.65;;;1.50;;
10458;SDS011;5277;48.722;8.736;2024-03-25T12:55:05;3.15;;;1.58;;
10458;SDS011;5277;48.722;8.736;2024-03-25T12:57:31;2.33;;;1.30;;
10458;SDS011;5277;48.722;8.736;2024-03-25T12:59:56;2.42;;;1.50;;
10458;SDS011;5277;48.722;8.736;2024-03-25T13:02:22;1.63;;;1.40;;
10458;SDS011;5277;48.722;8.736;2024-03-25T13:04:49;2.30;;;1.30;;
10458;SDS011;5277;48.722;8.736;2024-03-25T13:07:14;3.53;;;1.45;;
10458;SDS011;5277;48.722;8.736;2024-03-25T13:09:40;2.45;;;1.40;;
10458;SDS011;5277;48.722;8.736;2024-03-25T13:12:06;2.38;;;1.13;;
10458;SDS011;5277;48.722;8.736;2024-03-25T13:14:31;2.38;;;1.33;;
10458;SDS011;5277;48.722;8.736;2024-03-25T13:16:57;4.18;;;1.55;;
10458;SDS011;5277;48.722;8.736;2024-03-25T13:19:23;2.70;;;1.55;;
10458;SDS011;5277;48.722;8.736;2024-03-25T13:21:48;3.00;;;1.30;;
10458;SDS011;5277;48.722;8.736;2024-03-25T13:24:14;2.72;;;1.15;;
10458;SDS011;5277;48.722;8.736;2024-03-25T13:26:40;1.65;;;1.17;;
10458;SDS011;5277;48.722;8.736;2024-03-25T13:29:06;3.20;;;1.40;;
10458;SDS011;5277;48.722;8.736;2024-03-25T13:31:33;5.50;;;1.35;;
10458;SDS011;5277;48.722;8.736;2024-03-25T13:33:59;4.47;;;1.38;;
10458;SDS011;5277;48.722;8.736;2024-03-25T13:36:24;4.63;;;1.40;;
10458;SDS011;5277;48.722;8.736;2024-03-25T13:38:50;4.00;;;1.48;;
10458;SDS011;5277;48.722;8.736;2024-03-25T13:41:16;2.83;;;1.33;;
10458;SDS011;5277;48.722;8.736;2024-03-25T13:43:47;3.53;;;1.40;;
10458;SDS011;5277;48.722;8.736;2024-03-25T13:46:13;3.17;;;1.73;;
10458;SDS011;5277;48.722;8.736;2024-03-25T13:48:39;2.58;;;1.00;;
10458;SDS011;5277;48.722;8.736;2024-03-25T13:51:04;2.90;;;1.27;;
10458;SDS011;5277;48.722;8.736;2024-03-25T13:53:30;1.55;;;1.00;;
10458;SDS011;5277;48.722;8.736;2024-03-25T13:55:56;4.35;;;1.40;;
10458;SDS011;5277;48.722;8.736;2024-03-25T13:58:22;2.38;;;1.15;;
10458;SDS011;5277;48.722;8.736;2024-03-25T14:00:47;3.13;;;1.38;;
10458;SDS011;5277;48.722;8.736;2024-03-25T14:03:13;1.98;;;1.35;;
10458;SDS011;5277;48.722;8.736;2024-03-25T14:05:40;2.92;;;1.20;;
10458;SDS011;5277;48.722;8.736;2024-03-25T14:08:06;2.75;;;1.52;;
10458;SDS011;5277;48.722;8.736;2024-03-25T14:10:32;2.85;;;1.30;;
10458;SDS011;5277;48.722;8.736;2024-03-25T14:12:58;3.13;;;1.30;;
10458;SDS011;5277;48.722;8.736;2024-03-25T14:15:23;2.70;;;1.23;;
10458;SDS011;5277;48.722;8.736;2024-03-25T14:17:49;3.08;;;1.40;;
10458;SDS011;5277;48.722;8.736;2024-03-25T14:20:14;3.05;;;1.30;;
10458;SDS011;5277;48.722;8.736;2024-03-25T14:22:40;2.65;;;1.60;;
10458;SDS011;5277;48.722;8.736;2024-03-25T14:25:06;3.58;;;1.38;;
10458;SDS011;5277;48.722;8.736;2024-03-25T14:27:32;2.33;;;1.35;;
10458;SDS011;5277;48.722;8.736;2024-03-25T14:29:58;2.15;;;1.40;;
10458;SDS011;5277;48.722;8.736;2024-03-25T14:32:23;3.00;;;1.10;;
10458;SDS011;5277;48.722;8.736;2024-03-25T14:34:49;2.60;;;1.23;;
10458;SDS011;5277;48.722;8.736;2024-03-25T14:37:15;1.80;;;1.00;;
10458;SDS011;5277;48.722;8.736;2024-03-25T14:39:41;4.00;;;1.13;;
10458;SDS011;5277;48.722;8.736;2024-03-25T14:42:07;3.03;;;1.40;;
10458;SDS011;5277;48.722;8.736;2024-03-25T14:44:37;3.67;;;1.20;;
10458;SDS011;5277;48.722;8.736;2024-03-25T14:47:03;4.50;;;1.38;;
10458;SDS011;5277;48.722;8.736;2024-03-25T14:49:29;2.08;;;1.27;;
10458;SDS011;5277;48.722;8.736;2024-03-25T14:51:55;2.95;;;1.45;;
10458;SDS011;5277;48.722;8.736;2024-03-25T14:54:21;3.20;;;1.35;;
10458;SDS011;5277;48.722;8.736;2024-03-25T14:56:46;5.10;;;1.65;;
10458;SDS011;5277;48.722;8.736;2024-03-25T14:59:12;10.75;;;1.77;;
10458;SDS011;5277;48.722;8.736;2024-03-25T15:01:38;2.75;;;1.20;;